createdAt,value
2018-02-10T00:02:25.468Z,11.50
2018-02-10T00:04:51.872Z,12.80
2018-02-10T00:07:19.051Z,11.90
2018-02-10T00:09:45.462Z,13.87
2018-02-10T00:12:11.854Z,14.23
2018-02-10T00:14:39.010Z,14.10
2018-02-10T00:17:05.908Z,12.60
2018-02-10T00:19:32.629Z,14.90
2018-02-10T00:21:59.063Z,14.83
2018-02-10T00:24:26.247Z,14.70
2018-02-10T00:26:52.657Z,13.37
2018-02-10T00:29:19.831Z,13.30
2018-02-10T00:31:46.258Z,13.07
2018-02-10T00:34:13.481Z,14.50
2018-02-10T00:36:39.908Z,14.20
2018-02-10T00:39:06.338Z,15.23
2018-02-10T00:41:33.019Z,14.80
2018-02-10T00:43:59.463Z,14.77
2018-02-10T00:46:25.894Z,14.60
2018-02-10T00:48:52.359Z,13.70
2018-02-10T00:51:18.746Z,15.57
2018-02-10T00:53:45.163Z,14.83
2018-02-10T00:56:11.591Z,14.47
2018-02-10T00:58:38.027Z,15.00
2018-02-10T01:01:04.988Z,14.60
2018-02-10T01:03:31.564Z,13.50
2018-02-10T01:05:57.967Z,14.80
2018-02-10T01:08:24.388Z,13.67
2018-02-10T01:10:50.834Z,16.20
2018-02-10T01:13:17.267Z,16.17
2018-02-10T01:15:43.738Z,14.47
2018-02-10T01:18:10.176Z,15.47
2018-02-10T01:20:36.604Z,16.17
2018-02-10T01:23:03.193Z,15.43
2018-02-10T01:25:29.597Z,16.37
2018-02-10T01:27:56.058Z,15.17
2018-02-10T01:30:23.223Z,15.97
2018-02-10T01:32:50.398Z,16.03
2018-02-10T01:35:16.821Z,16.20
2018-02-10T01:37:43.254Z,14.33
2018-02-10T01:40:10.448Z,15.07
2018-02-10T01:42:36.905Z,16.97
2018-02-10T01:45:04.006Z,18.17
2018-02-10T01:47:30.455Z,16.87
2018-02-10T01:52:56.629Z,19.03
2018-02-10T01:55:23.814Z,19.47
2018-02-10T01:57:50.284Z,16.73
2018-02-10T02:00:17.505Z,18.10
2018-02-10T02:02:44.009Z,15.90
2018-02-10T02:05:10.442Z,17.80
2018-02-10T02:07:36.931Z,18.70
2018-02-10T02:10:04.878Z,16.83
2018-02-10T02:12:31.364Z,19.03
2018-02-10T02:14:58.607Z,16.53
2018-02-10T02:17:25.014Z,18.27
2018-02-10T02:19:51.461Z,17.90
2018-02-10T02:22:17.903Z,15.83
2018-02-10T02:24:44.776Z,17.57
2018-02-10T02:27:11.196Z,16.90
2018-02-10T02:29:37.701Z,15.77
2018-02-10T02:32:04.731Z,19.30
2018-02-10T02:34:31.225Z,18.20
2018-02-10T02:36:57.607Z,19.07
2018-02-10T02:39:24.033Z,19.17
2018-02-10T02:41:50.447Z,18.43
2018-02-10T02:44:17.633Z,18.70
2018-02-10T02:46:44.046Z,20.20
2018-02-10T02:49:11.234Z,19.83
2018-02-10T02:51:37.662Z,19.87
2018-02-10T02:54:05.304Z,20.50
2018-02-10T02:56:32.503Z,20.33
2018-02-10T02:58:59.691Z,19.47
2018-02-10T03:01:26.141Z,20.63
2018-02-10T03:03:52.796Z,22.40
2018-02-10T03:06:19.230Z,20.60
2018-02-10T03:08:45.798Z,19.40
2018-02-10T03:11:12.235Z,21.43
2018-02-10T03:13:38.670Z,18.30
2018-02-10T03:16:05.753Z,21.10
2018-02-10T03:18:32.197Z,21.80
2018-02-10T03:20:58.620Z,22.13
2018-02-10T03:23:25.166Z,19.90
2018-02-10T03:25:51.624Z,23.00
2018-02-10T03:28:18.036Z,16.17
2018-02-10T03:30:44.451Z,19.37
2018-02-10T03:33:10.847Z,16.70
2018-02-10T03:35:37.295Z,19.60
2018-02-10T03:38:04.262Z,20.10
2018-02-10T03:40:30.790Z,19.47
2018-02-10T03:42:57.240Z,18.10
2018-02-10T03:45:23.832Z,20.07
2018-02-10T03:47:50.239Z,20.90
2018-02-10T03:50:16.676Z,20.03
2018-02-10T03:52:43.084Z,22.47
2018-02-10T03:55:09.606Z,19.83
2018-02-10T03:57:36.004Z,21.13
2018-02-10T04:00:02.479Z,20.70
2018-02-10T04:02:28.909Z,20.87
2018-02-10T04:04:55.336Z,22.47
2018-02-10T04:07:21.749Z,20.63
2018-02-10T04:09:48.171Z,21.07
2018-02-10T04:12:15.426Z,21.17
2018-02-10T04:14:41.883Z,20.93
2018-02-10T04:17:08.288Z,25.30
2018-02-10T04:19:34.719Z,23.43
2018-02-10T04:22:01.219Z,22.73
2018-02-10T04:24:28.400Z,24.37
2018-02-10T04:26:55.585Z,19.47
2018-02-10T04:29:22.742Z,22.50
2018-02-10T04:31:49.198Z,20.07
2018-02-10T04:34:15.657Z,22.67
2018-02-10T04:36:42.075Z,23.40
2018-02-10T04:39:08.500Z,22.20
2018-02-10T04:41:34.979Z,22.00
2018-02-10T04:44:01.409Z,20.17
2018-02-10T04:46:27.851Z,21.93
2018-02-10T04:48:54.387Z,21.50
2018-02-10T04:51:20.822Z,20.30
2018-02-10T04:53:47.268Z,18.03
2018-02-10T04:56:13.743Z,18.00
2018-02-10T04:58:40.156Z,19.30
2018-02-10T05:01:06.677Z,18.90
2018-02-10T05:03:33.146Z,19.70
2018-02-10T05:05:59.587Z,17.77
2018-02-10T05:08:26.754Z,20.07
2018-02-10T05:10:53.186Z,18.70
2018-02-10T05:13:20.399Z,18.47
2018-02-10T05:15:46.849Z,18.57
2018-02-10T05:18:13.276Z,17.80
2018-02-10T05:20:39.703Z,15.73
2018-02-10T05:23:06.499Z,17.77
2018-02-10T05:25:32.915Z,16.20
2018-02-10T05:27:59.389Z,15.57
2018-02-10T05:30:26.579Z,15.77
2018-02-10T05:32:53.010Z,17.47
2018-02-10T05:35:20.234Z,17.03
2018-02-10T05:37:46.644Z,18.87
2018-02-10T05:40:13.054Z,15.53
2018-02-10T05:42:40.231Z,15.87
2018-02-10T05:45:06.691Z,16.80
2018-02-10T05:47:33.190Z,16.23
2018-02-10T05:49:59.884Z,17.97
2018-02-10T05:52:26.314Z,17.73
2018-02-10T05:54:52.691Z,17.60
2018-02-10T05:57:19.257Z,19.10
2018-02-10T05:59:45.740Z,16.97
2018-02-10T06:02:12.248Z,16.80
2018-02-10T06:04:39.428Z,17.47
2018-02-10T06:07:06.352Z,15.20
2018-02-10T06:09:32.798Z,18.30
2018-02-10T06:11:59.287Z,16.07
2018-02-10T06:14:25.760Z,17.67
2018-02-10T06:16:52.211Z,17.10
2018-02-10T06:19:18.643Z,18.77
2018-02-10T06:21:45.164Z,18.07
2018-02-10T06:24:11.633Z,17.20
2018-02-10T06:26:38.773Z,18.53
2018-02-10T06:29:05.916Z,19.87
2018-02-10T06:31:33.152Z,18.80
2018-02-10T06:33:59.655Z,16.90
2018-02-10T06:36:26.231Z,16.50
2018-02-10T06:38:52.867Z,17.50
2018-02-10T06:41:19.849Z,16.90
2018-02-10T06:43:46.538Z,18.87
2018-02-10T06:46:13.169Z,16.80
2018-02-10T06:48:39.791Z,17.07
2018-02-10T06:51:06.803Z,16.00
2018-02-10T06:53:34.353Z,15.87
2018-02-10T06:56:01.579Z,17.53
2018-02-10T06:58:29.966Z,16.20
2018-02-10T07:00:57.311Z,13.47
2018-02-10T07:03:24.796Z,13.37
2018-02-10T07:05:52.135Z,14.70
2018-02-10T07:08:18.795Z,15.60
2018-02-10T07:10:46.199Z,15.70
2018-02-10T07:13:13.482Z,13.63
2018-02-10T07:15:40.167Z,16.30
2018-02-10T07:18:07.268Z,17.47
2018-02-10T07:20:34.632Z,17.00
2018-02-10T07:23:01.219Z,15.20
2018-02-10T07:25:27.918Z,15.70
2018-02-10T07:27:55.272Z,18.30
2018-02-10T07:30:22.012Z,16.90
2018-02-10T07:32:48.494Z,20.33
2018-02-10T07:35:15.083Z,16.47
2018-02-10T07:37:41.688Z,16.87
2018-02-10T07:40:09.028Z,15.57
2018-02-10T07:42:37.060Z,16.23
2018-02-10T07:45:03.808Z,16.80
2018-02-10T07:47:30.289Z,16.30
2018-02-10T07:49:56.769Z,16.80
2018-02-10T07:52:23.283Z,16.20
2018-02-10T07:54:49.765Z,18.07
2018-02-10T07:57:16.575Z,16.67
2018-02-10T07:59:43.030Z,20.23
2018-02-10T08:02:09.876Z,18.03
2018-02-10T08:04:36.482Z,14.90
2018-02-10T08:07:03.059Z,16.57
2018-02-10T08:09:30.329Z,16.47
2018-02-10T08:11:57.747Z,17.10
2018-02-10T08:14:24.308Z,16.30
2018-02-10T08:16:50.896Z,17.30
2018-02-10T08:19:17.443Z,17.83
2018-02-10T08:21:43.945Z,16.77
2018-02-10T08:24:10.449Z,16.87
2018-02-10T08:26:36.919Z,15.33
2018-02-10T08:29:03.796Z,17.27
2018-02-10T08:31:31.042Z,17.30
2018-02-10T08:33:58.316Z,15.43
2018-02-10T08:36:25.555Z,16.50
2018-02-10T08:38:52.076Z,18.47
2018-02-10T08:41:18.580Z,16.50
2018-02-10T08:43:45.035Z,17.00
2018-02-10T08:46:12.631Z,17.67
2018-02-10T08:48:39.682Z,17.00
2018-02-10T08:51:06.599Z,17.17
2018-02-10T08:53:33.014Z,18.70
2018-02-10T08:55:59.899Z,20.53
2018-02-10T08:58:26.422Z,18.90
2018-02-10T09:00:53.882Z,19.07
2018-02-10T09:03:20.476Z,17.97
2018-02-10T09:05:47.033Z,18.43
2018-02-10T09:08:15.869Z,19.50
2018-02-10T09:10:42.406Z,17.83
2018-02-10T09:13:09.008Z,18.27
2018-02-10T09:15:36.365Z,16.63
2018-02-10T09:18:03.651Z,15.73
2018-02-10T09:20:30.960Z,19.97
2018-02-10T09:22:57.491Z,17.40
2018-02-10T09:25:24.035Z,17.40
2018-02-10T09:27:51.305Z,17.87
2018-02-10T09:30:18.530Z,16.33
2018-02-10T09:32:45.011Z,19.67
2018-02-10T09:35:11.515Z,17.93
2018-02-10T09:37:38.776Z,18.00
2018-02-10T09:40:06.550Z,18.27
2018-02-10T09:42:33.563Z,18.47
2018-02-10T09:45:00.207Z,15.93
2018-02-10T09:47:27.534Z,18.90
2018-02-10T09:49:54.148Z,20.37
2018-02-10T09:52:20.612Z,18.70
2018-02-10T09:54:47.142Z,18.40
2018-02-10T09:57:13.661Z,16.87
2018-02-10T09:59:40.599Z,17.90
2018-02-10T10:02:07.853Z,19.63
2018-02-10T10:04:34.419Z,18.40
2018-02-10T10:07:00.974Z,16.37
2018-02-10T10:09:27.477Z,18.50
2018-02-10T10:11:53.913Z,16.73
2018-02-10T10:14:20.539Z,18.47
2018-02-10T10:16:47.068Z,16.27
2018-02-10T10:19:13.605Z,16.17
2018-02-10T10:21:40.400Z,16.73
2018-02-10T10:24:06.915Z,16.90
2018-02-10T10:26:33.401Z,16.97
2018-02-10T10:28:59.974Z,19.40
2018-02-10T10:31:26.575Z,14.73
2018-02-10T10:33:54.574Z,13.90
2018-02-10T10:36:21.062Z,14.80
2018-02-10T10:38:47.791Z,12.37
2018-02-10T10:41:14.398Z,13.57
2018-02-10T10:43:40.983Z,13.57
2018-02-10T10:46:08.248Z,14.00
2018-02-10T10:48:34.831Z,13.30
2018-02-10T10:51:01.672Z,13.70
2018-02-10T10:53:28.264Z,12.57
2018-02-10T10:55:54.893Z,11.43
2018-02-10T10:58:21.383Z,11.70
2018-02-10T11:00:48.122Z,12.30
2018-02-10T11:03:14.567Z,12.20
2018-02-10T11:05:41.154Z,11.90
2018-02-10T11:08:07.707Z,11.63
2018-02-10T11:10:34.274Z,13.57
2018-02-10T11:13:00.763Z,11.00
2018-02-10T11:15:28.316Z,10.43
2018-02-10T11:17:54.784Z,11.10
2018-02-10T11:20:21.627Z,12.87
2018-02-10T11:22:49.062Z,11.20
2018-02-10T11:25:15.580Z,11.57
2018-02-10T11:27:42.088Z,11.50
2018-02-10T11:30:09.372Z,12.30
2018-02-10T11:32:35.958Z,11.70
2018-02-10T11:35:02.643Z,14.30
2018-02-10T11:37:29.074Z,12.73
2018-02-10T11:39:56.155Z,13.97
2018-02-10T11:42:22.681Z,13.17
2018-02-10T11:44:50.108Z,14.53
2018-02-10T11:47:16.584Z,15.50
2018-02-10T11:49:43.133Z,13.40
2018-02-10T11:52:09.646Z,14.60
2018-02-10T11:54:36.208Z,13.20
2018-02-10T11:57:03.045Z,15.50
2018-02-10T11:59:30.252Z,14.90
2018-02-10T12:01:56.687Z,14.93
2018-02-10T12:04:23.181Z,14.83
2018-02-10T12:06:49.786Z,14.03
2018-02-10T12:09:16.452Z,15.23
2018-02-10T12:11:43.239Z,16.97
2018-02-10T12:14:10.059Z,18.47
2018-02-10T12:16:37.303Z,16.07
2018-02-10T12:19:04.719Z,17.10
2018-02-10T12:21:31.747Z,16.07
2018-02-10T12:23:59.126Z,14.63
2018-02-10T12:26:25.719Z,18.23
2018-02-10T12:28:52.323Z,14.67
2018-02-10T12:31:20.135Z,16.10
2018-02-10T12:33:47.070Z,16.10
2018-02-10T12:36:13.587Z,15.90
2018-02-10T12:38:40.201Z,16.17
2018-02-10T12:41:06.712Z,16.27
2018-02-10T12:43:33.729Z,16.40
2018-02-10T12:46:01.025Z,19.67
2018-02-10T12:48:33.539Z,16.67
2018-02-10T12:51:01.522Z,16.10
2018-02-10T12:53:27.974Z,17.40
2018-02-10T12:55:54.495Z,17.23
2018-02-10T12:58:21.866Z,18.13
2018-02-10T13:00:48.775Z,13.67
2018-02-10T13:03:16.101Z,17.57
2018-02-10T13:05:42.645Z,15.93
2018-02-10T13:08:09.139Z,17.10
2018-02-10T13:10:36.710Z,16.50
2018-02-10T13:13:03.781Z,16.50
2018-02-10T13:15:31.011Z,16.80
2018-02-10T13:17:57.528Z,17.60
2018-02-10T13:20:24.082Z,19.03
2018-02-10T13:22:50.598Z,21.03
2018-02-10T13:25:18.645Z,18.83
2018-02-10T13:27:46.029Z,18.80
2018-02-10T13:30:13.302Z,20.20
2018-02-10T13:32:39.815Z,19.10
2018-02-10T13:35:06.434Z,18.73
2018-02-10T13:37:32.977Z,21.53
2018-02-10T13:39:59.491Z,18.43
2018-02-10T13:42:26.784Z,19.63
2018-02-10T13:44:53.211Z,17.70
2018-02-10T13:47:19.736Z,18.57
2018-02-10T13:49:46.296Z,18.63
2018-02-10T13:52:13.655Z,17.93
2018-02-10T13:54:40.129Z,18.27
2018-02-10T13:57:07.336Z,17.13
2018-02-10T13:59:33.819Z,18.40
2018-02-10T14:02:00.728Z,16.63
2018-02-10T14:04:28.009Z,17.90
2018-02-10T14:06:54.493Z,17.40
2018-02-10T14:09:21.706Z,15.97
2018-02-10T14:11:48.300Z,15.70
2018-02-10T14:14:14.795Z,18.73
2018-02-10T14:16:41.839Z,18.43
2018-02-10T14:19:08.316Z,15.53
2018-02-10T14:21:35.648Z,15.33
2018-02-10T14:24:02.779Z,16.50
2018-02-10T14:26:30.084Z,14.40
2018-02-10T14:28:56.626Z,15.47
2018-02-10T14:31:23.134Z,13.93
2018-02-10T14:33:49.681Z,12.77
2018-02-10T14:36:17.157Z,15.00
2018-02-10T14:38:44.411Z,14.03
2018-02-10T14:41:11.226Z,14.93
2018-02-10T14:43:37.758Z,15.53
2018-02-10T14:46:05.189Z,15.10
2018-02-10T14:48:32.368Z,14.63
2018-02-10T14:50:59.137Z,14.47
2018-02-10T14:53:26.430Z,13.80
2018-02-10T14:55:53.007Z,15.33
2018-02-10T14:58:19.758Z,15.67
2018-02-10T15:00:47.725Z,13.53
2018-02-10T15:03:14.191Z,15.57
2018-02-10T15:05:41.470Z,14.47
2018-02-10T15:08:08.082Z,17.90
2018-02-10T15:10:34.614Z,15.57
2018-02-10T15:13:02.361Z,17.10
2018-02-10T15:15:28.950Z,15.87
2018-02-10T15:17:56.265Z,16.93
2018-02-10T15:20:22.855Z,15.47
2018-02-10T15:22:50.226Z,14.77
2018-02-10T15:25:16.746Z,15.83
2018-02-10T15:27:43.320Z,14.83
2018-02-10T15:30:22.157Z,14.03
2018-02-10T15:33:01.372Z,12.77
2018-02-10T15:35:27.875Z,12.60
2018-02-10T15:37:54.512Z,13.73
2018-02-10T15:40:21.123Z,9.40
2018-02-10T15:42:48.637Z,13.03
2018-02-10T15:45:16.573Z,10.43
2018-02-10T15:47:43.088Z,11.10
2018-02-10T15:50:09.643Z,7.90
2018-02-10T15:52:36.254Z,10.10
2018-02-10T15:55:02.908Z,8.73
2018-02-10T15:57:29.414Z,9.00
2018-02-10T15:59:55.893Z,10.13
2018-02-10T16:02:23.148Z,8.10
2018-02-10T16:04:49.664Z,11.00
2018-02-10T16:07:16.294Z,10.30
2018-02-10T16:09:42.894Z,10.73
2018-02-10T16:12:09.483Z,10.90
2018-02-10T16:14:36.745Z,10.03
2018-02-10T16:17:03.382Z,8.00
2018-02-10T16:19:29.915Z,8.83
2018-02-10T16:21:56.459Z,7.50
2018-02-10T16:24:22.959Z,8.20
2018-02-10T16:26:50.242Z,8.97
2018-02-10T16:29:16.817Z,6.77
2018-02-10T16:31:43.329Z,9.00
2018-02-10T16:34:11.478Z,9.50
2018-02-10T16:36:38.012Z,8.17
2018-02-10T16:39:05.171Z,8.30
2018-02-10T16:41:31.770Z,7.20
2018-02-10T16:44:00.348Z,7.40
2018-02-10T16:46:27.819Z,8.50
2018-02-10T16:48:55.780Z,8.63
2018-02-10T16:51:22.230Z,9.57
2018-02-10T16:53:48.855Z,8.10
2018-02-10T16:56:15.593Z,8.63
2018-02-10T16:58:42.365Z,8.03
2018-02-10T17:01:09.049Z,7.30
2018-02-10T17:03:36.464Z,8.10
2018-02-10T17:06:03.471Z,10.37
2018-02-10T17:08:30.051Z,7.77
2018-02-10T17:10:56.588Z,7.50
2018-02-10T17:13:23.169Z,8.13
2018-02-10T17:15:50.403Z,7.30
2018-02-10T17:18:17.552Z,7.60
2018-02-10T17:20:43.938Z,7.33
2018-02-10T17:23:11.128Z,7.27
2018-02-10T17:25:37.563Z,9.13
2018-02-10T17:28:04.740Z,7.57
2018-02-10T17:30:31.174Z,7.03
2018-02-10T17:32:57.619Z,7.13
2018-02-10T17:35:24.100Z,6.60
2018-02-10T17:37:50.556Z,7.20
2018-02-10T17:40:24.822Z,8.30
2018-02-10T17:42:51.424Z,7.73
2018-02-10T17:45:17.883Z,7.73
2018-02-10T17:47:44.522Z,7.47
2018-02-10T17:50:11.015Z,6.60
2018-02-10T17:52:37.415Z,7.17
2018-02-10T17:55:05.162Z,8.20
2018-02-10T17:57:31.627Z,8.20
2018-02-10T17:59:58.008Z,8.47
2018-02-10T18:02:24.450Z,9.10
2018-02-10T18:04:50.922Z,10.10
2018-02-10T18:07:17.306Z,8.90
2018-02-10T18:09:43.740Z,9.10
2018-02-10T18:12:10.151Z,8.87
2018-02-10T18:14:36.554Z,9.53
2018-02-10T18:17:03.168Z,8.60
2018-02-10T18:19:29.603Z,10.33
2018-02-10T18:21:56.063Z,8.20
2018-02-10T18:24:22.506Z,9.53
2018-02-10T18:26:48.947Z,9.97
2018-02-10T18:29:15.379Z,8.70
2018-02-10T18:31:41.803Z,9.07
2018-02-10T18:34:08.285Z,8.97
2018-02-10T18:36:34.682Z,8.97
2018-02-10T18:39:01.255Z,10.83
2018-02-10T18:41:27.660Z,8.90
2018-02-10T18:43:54.803Z,7.30
2018-02-10T18:46:22.024Z,8.43
2018-02-10T18:48:48.453Z,7.83
2018-02-10T18:51:14.834Z,9.20
2018-02-10T18:53:42.032Z,7.60
2018-02-10T18:56:08.871Z,7.53
2018-02-10T18:58:35.306Z,6.77
2018-02-10T19:01:02.735Z,6.10
2018-02-10T19:03:29.155Z,6.40
2018-02-10T19:05:55.536Z,7.67
2018-02-10T19:08:21.961Z,6.63
2018-02-10T19:10:49.145Z,8.97
2018-02-10T19:13:15.674Z,6.47
2018-02-10T19:15:42.090Z,5.97
2018-02-10T19:18:08.867Z,6.77
2018-02-10T19:20:36.094Z,6.60
2018-02-10T19:23:02.851Z,6.90
2018-02-10T19:25:29.311Z,6.57
2018-02-10T19:27:55.718Z,6.53
2018-02-10T19:30:22.163Z,5.90
2018-02-10T19:32:48.937Z,6.77
2018-02-10T19:35:15.709Z,5.40
2018-02-10T19:37:42.270Z,5.83
2018-02-10T19:40:09.430Z,4.60
2018-02-10T19:42:35.927Z,5.90
2018-02-10T19:45:02.502Z,5.67
2018-02-10T19:47:29.061Z,5.60
2018-02-10T19:49:55.596Z,4.97
2018-02-10T19:52:22.018Z,4.67
2018-02-10T19:54:48.488Z,4.40
2018-02-10T19:57:14.896Z,5.33
2018-02-10T19:59:41.381Z,5.00
2018-02-10T20:02:08.220Z,5.43
2018-02-10T20:04:35.427Z,5.27
2018-02-10T20:07:02.951Z,4.40
2018-02-10T20:09:30.211Z,4.30
2018-02-10T20:11:56.620Z,3.80
2018-02-10T20:14:23.102Z,3.93
2018-02-10T20:16:50.276Z,4.77
2018-02-10T20:19:16.717Z,3.50
2018-02-10T20:21:43.903Z,3.60
2018-02-10T20:24:10.454Z,3.97
2018-02-10T20:26:37.584Z,3.80
2018-02-10T20:29:05.035Z,3.30
2018-02-10T20:31:32.219Z,3.40
2018-02-10T20:33:59.403Z,4.33
2018-02-10T20:36:25.816Z,3.80
2018-02-10T20:38:52.238Z,3.67
2018-02-10T20:41:18.659Z,2.43
2018-02-10T20:43:45.059Z,2.60
2018-02-10T20:46:11.516Z,3.07
2018-02-10T20:48:37.929Z,3.40
2018-02-10T20:51:04.972Z,2.23
2018-02-10T20:53:31.422Z,2.97
2018-02-10T20:55:57.903Z,2.10
2018-02-10T20:58:24.343Z,2.20
2018-02-10T21:00:51.576Z,3.10
2018-02-10T21:03:17.998Z,3.00
2018-02-10T21:05:44.397Z,2.53
2018-02-10T21:08:10.970Z,2.97
2018-02-10T21:10:37.426Z,2.20
2018-02-10T21:13:04.309Z,2.60
2018-02-10T21:15:30.842Z,2.83
2018-02-10T21:17:57.251Z,2.10
2018-02-10T21:20:24.478Z,2.00
2018-02-10T21:22:51.054Z,2.53
2018-02-10T21:25:18.234Z,2.23
2018-02-10T21:27:44.668Z,2.63
2018-02-10T21:30:11.674Z,2.50
2018-02-10T21:32:38.072Z,2.00
2018-02-10T21:35:06.093Z,1.77
2018-02-10T21:37:32.531Z,2.27
2018-02-10T21:39:58.988Z,2.10
2018-02-10T21:42:25.391Z,2.10
2018-02-10T21:44:51.822Z,1.70
2018-02-10T21:47:18.986Z,2.50
2018-02-10T21:49:46.193Z,1.80
2018-02-10T21:52:12.580Z,1.90
2018-02-10T21:54:38.992Z,1.73
2018-02-10T21:57:05.983Z,2.30
2018-02-10T21:59:33.127Z,2.00
2018-02-10T22:02:00.434Z,1.80
2018-02-10T22:04:26.916Z,2.73
2018-02-10T22:06:53.350Z,1.67
2018-02-10T22:09:19.832Z,2.10
2018-02-10T22:11:46.279Z,1.80
2018-02-10T22:14:13.459Z,1.37
2018-02-10T22:16:40.628Z,2.60
2018-02-10T22:19:08.256Z,2.17
2018-02-10T22:21:34.808Z,2.40
2018-02-10T22:24:01.223Z,2.13
2018-02-10T22:26:27.803Z,2.03
2018-02-10T22:28:54.232Z,2.13
2018-02-10T22:31:20.641Z,1.90
2018-02-10T22:33:47.782Z,2.20
2018-02-10T22:36:14.439Z,2.70
2018-02-10T22:38:40.894Z,2.43
2018-02-10T22:41:07.623Z,2.23
2018-02-10T22:43:34.074Z,2.37
2018-02-10T22:46:00.520Z,2.80
2018-02-10T22:48:27.019Z,2.07
2018-02-10T22:50:53.476Z,2.07
2018-02-10T22:53:20.653Z,2.00
2018-02-10T22:55:47.864Z,2.50
2018-02-10T22:58:14.352Z,2.07
2018-02-10T23:00:41.564Z,1.90
2018-02-10T23:03:09.182Z,2.40
2018-02-10T23:05:36.383Z,2.70
2018-02-10T23:08:04.135Z,1.93
2018-02-10T23:10:30.581Z,2.70
2018-02-10T23:12:57.094Z,2.40
2018-02-10T23:15:23.628Z,2.60
2018-02-10T23:17:50.079Z,2.27
2018-02-10T23:20:16.485Z,2.13
2018-02-10T23:22:43.684Z,3.07
2018-02-10T23:25:10.109Z,2.37
2018-02-10T23:27:36.615Z,2.63
2018-02-10T23:30:03.669Z,3.73
2018-02-10T23:32:30.921Z,2.97
2018-02-10T23:34:57.317Z,1.97
2018-02-10T23:37:24.467Z,2.63
2018-02-10T23:39:51.611Z,3.10
2018-02-10T23:42:18.003Z,3.37
2018-02-10T23:44:44.415Z,3.00
2018-02-10T23:47:10.937Z,3.10
2018-02-10T23:49:38.097Z,3.00
2018-02-10T23:52:04.845Z,2.67
2018-02-10T23:54:31.248Z,3.30
2018-02-10T23:56:57.710Z,2.73
2018-02-10T23:59:24.124Z,3.20
